Time;durP1;ratioP1;P1;durP2;ratioP2;P2;SDS_P1;SDS_P2;PMS_P1;PMS_P2;Temp;Humidity;BMP_temperature;BMP_pressure;BME280_temperature;BME280_humidity;BME280_pressure;Samples;Min_cycle;Max_cycle;Signal;HPM_P1;HPM_P2
2021/10/07 00:01:51;;;;;;;0.10;0.10;;;;;;;14.75;70.31;102410.38;5027519;28;20029;-87
2021/10/07 00:04:18;;;;;;;0.10;0.10;;;;;;;14.81;70.58;102423.63;5025670;28;20036;-85
2021/10/07 00:06:45;;;;;;;0.10;0.10;;;;;;;14.84;70.45;102418.28;5026462;28;20043;-85
2021/10/07 00:09:12;;;;;;;0.10;0.10;;;;;;;14.84;70.33;102426.28;5027353;28;20030;-85
2021/10/07 00:11:38;;;;;;;0.10;0.10;;;;;;;14.91;70.52;102420.88;5027123;28;20037;-81
2021/10/07 00:14:06;;;;;;;0.10;0.10;;;;;;;14.93;71.00;102419.03;5025197;28;20025;-85
2021/10/07 00:16:33;;;;;;;0.10;0.10;;;;;;;15.03;70.96;102426.03;5026093;28;20018;-81
2021/10/07 00:19:00;;;;;;;0.10;0.10;;;;;;;15.01;70.81;102425.16;5024316;28;20029;-84
2021/10/07 00:21:26;;;;;;;0.10;0.10;;;;;;;15.03;71.14;102420.72;5025794;28;20022;-83
2021/10/07 00:24:06;;;;;;;0.22;0.22;;;;;;;15.06;71.65;102425.13;5027354;28;20057;-81
2021/10/07 00:26:35;;;;;;;0.03;0.03;;;;;;;15.19;71.02;102434.72;5026876;28;20397;-86
2021/10/07 00:29:15;;;;;;;0.10;0.10;;;;;;;15.25;71.29;102425.72;5026510;28;20026;-85
2021/10/07 00:31:44;;;;;;;0.10;0.10;;;;;;;15.28;70.83;102434.59;5026801;28;20103;-85
2021/10/07 00:39:46;;;;;;;0.10;0.10;;;;;;;15.39;71.12;102436.22;5083676;27;20439;-86
2021/10/07 00:42:13;;;;;;;0.10;0.10;;;;;;;15.38;70.96;102438.00;5073496;28;20086;-85
2021/10/07 00:44:40;;;;;;;0.00;0.00;;;;;;;15.45;70.80;102441.47;5076169;28;20047;-84
2021/10/07 00:47:07;;;;;;;0.10;0.10;;;;;;;15.49;70.72;102446.75;5068470;28;20029;-86
2021/10/07 00:49:39;;;;;;;0.05;0.05;;;;;;;15.52;70.48;102441.34;5058617;28;20039;-84
2021/10/07 00:52:08;;;;;;;0.10;0.10;;;;;;;15.51;70.63;102454.72;5066658;28;20056;-83
2021/10/07 00:54:36;;;;;;;0.08;0.08;;;;;;;15.48;70.55;102444.97;5057920;28;20022;-86
2021/10/07 00:57:05;;;;;;;0.10;0.10;;;;;;;15.51;70.51;102449.38;5059003;28;20032;-85
2021/10/07 00:59:33;;;;;;;0.10;0.10;;;;;;;15.51;70.38;102455.63;5057694;28;20041;-85
2021/10/07 01:02:05;;;;;;;0.08;0.08;;;;;;;15.51;70.38;102446.72;5059743;28;20052;-86
2021/10/07 01:04:32;;;;;;;0.10;0.10;;;;;;;15.58;70.16;102453.72;5059055;28;20033;-86
2021/10/07 01:06:59;;;;;;;0.10;0.10;;;;;;;15.63;70.44;102459.88;5057151;28;20051;-86
2021/10/07 01:09:28;;;;;;;0.10;0.10;;;;;;;15.65;70.63;102454.50;5057190;28;20034;-86
2021/10/07 01:11:56;;;;;;;0.00;0.00;;;;;;;15.69;70.52;102454.44;5058185;28;20036;-85
2021/10/07 01:17:26;;;;;;;0.10;0.10;;;;;;;15.74;70.73;102467.75;5070085;28;20418;-86
2021/10/07 01:19:56;;;;;;;0.10;0.10;;;;;;;15.85;70.56;102472.97;5061610;28;20132;-86
2021/10/07 01:22:25;;;;;;;0.10;0.10;;;;;;;15.89;70.78;102468.41;5057049;28;20502;-86
2021/10/07 01:24:53;;;;;;;0.10;0.10;;;;;;;15.92;70.76;102465.72;5050633;28;20033;-86
2021/10/07 01:27:23;;;;;;;0.08;0.08;;;;;;;15.93;70.49;102472.84;5050252;28;20040;-84
2021/10/07 01:29:58;;;;;;;0.10;0.10;;;;;;;15.93;70.93;102471.03;5050298;28;20017;-85
2021/10/07 01:32:25;;;;;;;0.10;0.10;;;;;;;15.95;70.43;102476.34;5049937;28;20039;-86
2021/10/07 01:34:52;;;;;;;0.10;0.10;;;;;;;15.94;70.85;102482.63;5050638;28;20051;-85
2021/10/07 01:37:19;;;;;;;0.10;0.10;;;;;;;15.98;70.53;102481.66;5051941;28;20029;-86
2021/10/07 01:39:45;;;;;;;0.10;0.10;;;;;;;15.98;70.43;102481.66;5054096;28;20037;-86
2021/10/07 01:42:12;;;;;;;0.10;0.10;;;;;;;16.00;70.63;102486.06;5049514;28;20029;-86
2021/10/07 01:44:38;;;;;;;0.10;0.10;;;;;;;15.97;71.13;102486.09;5051802;28;20458;-85
2021/10/07 01:47:05;;;;;;;0.10;0.10;;;;;;;15.94;71.34;102490.66;5051861;28;20025;-85
2021/10/07 01:49:31;;;;;;;0.10;0.10;;;;;;;16.06;70.60;102500.25;5052409;28;20029;-81
2021/10/07 01:51:58;;;;;;;0.20;0.20;;;;;;;16.07;70.59;102494.84;5054938;28;20031;-86
2021/10/07 01:54:24;;;;;;;0.10;0.10;;;;;;;16.08;71.10;102498.44;5055997;28;20412;-86
2021/10/07 01:56:51;;;;;;;0.10;0.10;;;;;;;16.11;71.05;102506.38;5069842;28;20107;-85
2021/10/07 01:59:17;;;;;;;0.08;0.08;;;;;;;16.12;70.87;102503.69;5063142;28;20033;-86
2021/10/07 02:01:43;;;;;;;0.10;0.10;;;;;;;16.19;70.84;102507.16;5061473;28;20029;-85
2021/10/07 02:04:10;;;;;;;0.10;0.10;;;;;;;16.13;70.88;102504.59;5059530;28;20025;-86
2021/10/07 02:06:36;;;;;;;0.00;0.00;;;;;;;16.17;70.54;102504.50;5062227;28;20491;-86
2021/10/07 02:09:05;;;;;;;0.10;0.10;;;;;;;16.21;70.89;102510.66;5062748;28;20040;-86
2021/10/07 02:11:32;;;;;;;0.10;0.10;;;;;;;16.26;70.35;102507.91;5062731;28;20028;-86
2021/10/07 02:14:00;;;;;;;0.10;0.10;;;;;;;16.20;71.14;102513.38;5058893;28;20523;-86
2021/10/07 02:16:28;;;;;;;0.80;0.80;;;;;;;16.15;71.17;102513.47;5060310;28;20033;-85
2021/10/07 02:18:54;;;;;;;0.10;0.10;;;;;;;16.15;71.27;102513.47;5062676;28;20021;-86
2021/10/07 02:21:21;;;;;;;0.10;0.10;;;;;;;16.17;71.38;102522.31;5062505;28;20028;-86
2021/10/07 02:23:47;;;;;;;0.95;0.95;;;;;;;16.18;71.01;102524.97;5060140;28;20040;-86
2021/10/07 02:26:14;;;;;;;0.03;0.03;;;;;;;16.31;70.78;102519.41;5058899;28;20079;-86
2021/10/07 02:28:41;;;;;;;0.10;0.10;;;;;;;16.28;70.69;102532.84;5049210;28;20017;-85
2021/10/07 02:31:07;;;;;;;0.00;0.00;;;;;;;16.37;70.57;102521.13;5049386;28;20052;-84
2021/10/07 02:33:33;;;;;;;0.45;0.28;;;;;;;16.32;70.65;102523.84;5040549;28;20028;-86
2021/10/07 02:36:00;;;;;;;0.10;0.10;;;;;;;16.31;70.49;102522.09;5045770;28;20028;-86
2021/10/07 02:38:26;;;;;;;0.10;0.10;;;;;;;16.31;70.70;102522.09;5044346;28;20021;-85
2021/10/07 02:40:53;;;;;;;0.10;0.10;;;;;;;16.36;70.76;102524.69;5042318;28;20468;-85
2021/10/07 02:43:19;;;;;;;0.10;0.10;;;;;;;16.38;70.40;102523.75;5042029;28;20025;-84
2021/10/07 02:45:46;;;;;;;0.10;0.10;;;;;;;16.46;70.37;102535.22;5044086;28;20443;-84
2021/10/07 02:48:12;;;;;;;0.10;0.10;;;;;;;16.41;70.61;102528.16;5045734;28;20086;-84
2021/10/07 02:50:39;;;;;;;0.08;0.08;;;;;;;16.46;70.48;102529.88;5042528;28;20022;-86
2021/10/07 02:53:05;;;;;;;0.00;0.00;;;;;;;16.43;70.38;102532.56;5042318;28;20029;-85
2021/10/07 02:55:32;;;;;;;0.10;0.10;;;;;;;16.46;70.59;102529.88;5041672;28;20030;-86
2021/10/07 02:57:58;;;;;;;0.10;0.10;;;;;;;16.46;70.51;102532.53;5041747;28;20209;-85
2021/10/07 03:00:25;;;;;;;0.10;0.10;;;;;;;16.54;70.35;102528.84;5038460;28;20519;-84
2021/10/07 03:02:51;;;;;;;0.10;0.10;;;;;;;16.47;70.22;102531.63;5039399;28;20035;-85
2021/10/07 03:05:17;;;;;;;0.10;0.10;;;;;;;16.47;70.20;102544.13;5041414;28;20037;-85
2021/10/07 03:07:44;;;;;;;0.10;0.10;;;;;;;16.46;70.22;102531.63;5049232;28;20099;-85
2021/10/07 03:10:10;;;;;;;0.10;0.10;;;;;;;16.45;70.42;102533.44;5044495;28;20131;-86
2021/10/07 03:12:37;;;;;;;0.08;0.08;;;;;;;16.47;70.52;102549.47;5047546;28;20028;-84
2021/10/07 03:15:05;;;;;;;0.05;0.05;;;;;;;16.57;69.94;102547.50;5048349;28;20025;-84
2021/10/07 03:17:31;;;;;;;0.10;0.10;;;;;;;16.56;70.12;102545.75;5042958;28;20032;-85
2021/10/07 03:19:57;;;;;;;0.08;0.08;;;;;;;16.53;69.99;102552.03;5040064;28;20017;-86
2021/10/07 03:22:24;;;;;;;0.10;0.10;;;;;;;16.60;69.92;102555.50;5043203;28;20040;-87
2021/10/07 03:24:51;;;;;;;0.10;0.10;;;;;;;16.60;69.76;102558.19;5037421;28;20083;-85
2021/10/07 03:27:18;;;;;;;0.10;0.10;;;;;;;16.60;70.13;102561.72;5036872;28;20109;-86
2021/10/07 03:29:44;;;;;;;0.10;0.10;;;;;;;16.56;70.21;102564.47;5034506;28;20419;-85
2021/10/07 03:32:10;;;;;;;0.03;0.03;;;;;;;16.54;70.24;102560.97;5044842;28;20366;-83
2021/10/07 03:34:37;;;;;;;0.30;0.30;;;;;;;16.46;70.28;102570.00;5050958;28;20029;-85
2021/10/07 03:37:03;;;;;;;0.10;0.10;;;;;;;16.52;70.04;102569.00;5036590;28;20033;-85
2021/10/07 03:39:29;;;;;;;0.10;0.10;;;;;;;16.48;70.41;102573.50;5039828;28;20025;-86
2021/10/07 03:41:56;;;;;;;0.43;0.43;;;;;;;16.48;70.12;102568.16;5044142;28;20017;-85
2021/10/07 03:44:22;;;;;;;0.00;0.00;;;;;;;16.50;70.02;102569.03;5036476;28;20037;-84
2021/10/07 03:46:48;;;;;;;0.10;0.10;;;;;;;16.53;70.12;102580.59;5040763;28;20029;-85
2021/10/07 03:49:14;;;;;;;0.10;0.10;;;;;;;16.54;70.42;102579.69;5047574;28;20099;-85
2021/10/07 03:51:41;;;;;;;0.10;0.10;;;;;;;16.54;70.19;102572.53;5037706;28;20476;-84
2021/10/07 03:54:07;;;;;;;0.10;0.10;;;;;;;16.56;70.13;102575.16;5047564;28;20033;-86
2021/10/07 03:56:34;;;;;;;0.10;0.10;;;;;;;16.63;69.99;102571.50;5046478;28;20057;-85
2021/10/07 03:59:00;;;;;;;0.10;0.10;;;;;;;16.64;69.92;102579.47;5048113;28;20021;-84
2021/10/07 04:01:26;;;;;;;0.10;0.10;;;;;;;16.60;70.06;102577.78;5037233;28;20893;-83
2021/10/07 04:03:52;;;;;;;0.10;0.10;;;;;;;16.58;69.91;102574.22;5038425;28;20104;-85
2021/10/07 04:06:18;;;;;;;0.10;0.10;;;;;;;16.63;70.14;102584.88;5032222;28;20468;-85
2021/10/07 04:08:45;;;;;;;0.17;0.17;;;;;;;16.63;70.12;102583.06;5040672;28;20028;-86
2021/10/07 04:11:11;;;;;;;0.10;0.10;;;;;;;16.61;70.15;102590.25;5033693;28;20424;-85
2021/10/07 04:13:37;;;;;;;0.10;0.10;;;;;;;16.64;70.06;102600.88;5039694;28;20156;-80
2021/10/07 04:16:04;;;;;;;0.00;0.00;;;;;;;16.58;70.22;102600.13;5033718;28;20029;-84
2021/10/07 04:18:30;;;;;;;0.10;0.10;;;;;;;16.59;70.02;102594.75;5036070;28;20037;-84
2021/10/07 04:20:56;;;;;;;0.10;0.10;;;;;;;16.64;69.72;102605.38;5034464;28;20464;-83
2021/10/07 04:23:23;;;;;;;0.10;0.10;;;;;;;16.55;69.81;102605.50;5035250;28;20037;-85
2021/10/07 04:25:50;;;;;;;0.10;0.10;;;;;;;16.61;69.82;102617.00;5036255;28;20486;-85
2021/10/07 04:28:16;;;;;;;0.10;0.10;;;;;;;16.54;70.30;102603.78;5034986;28;20036;-83
2021/10/07 04:30:43;;;;;;;0.05;0.05;;;;;;;16.57;70.32;102614.41;5030190;28;20536;-82
2021/10/07 04:33:11;;;;;;;0.10;0.10;;;;;;;16.60;69.83;102612.56;5031757;28;20059;-84
2021/10/07 04:35:39;;;;;;;0.00;0.00;;;;;;;16.60;69.93;102619.72;5040777;28;20110;-84
2021/10/07 04:38:06;;;;;;;0.10;0.10;;;;;;;16.62;69.73;102616.13;5038492;28;20053;-84
2021/10/07 04:40:33;;;;;;;0.10;0.10;;;;;;;16.62;69.73;102617.88;5037258;28;20029;-85
2021/10/07 04:42:59;;;;;;;0.10;0.10;;;;;;;16.58;69.98;102622.41;5031731;28;20530;-85
2021/10/07 04:45:26;;;;;;;0.10;0.10;;;;;;;16.60;69.77;102625.06;5034710;28;20037;-82
2021/10/07 04:47:53;;;;;;;0.10;0.10;;;;;;;16.56;69.86;102623.34;5033424;28;20117;-85
2021/10/07 04:50:19;;;;;;;0.10;0.10;;;;;;;16.56;69.90;102618.88;5035923;28;20041;-83
2021/10/07 04:52:45;;;;;;;0.73;0.73;;;;;;;16.57;69.79;102628.66;5032129;28;20038;-87
2021/10/07 04:55:11;;;;;;;0.10;0.10;;;;;;;16.53;70.07;102626.94;5031915;28;20411;-85
2021/10/07 04:57:38;;;;;;;0.40;0.40;;;;;;;16.55;70.08;102633.16;5027348;28;20022;-85
2021/10/07 05:00:05;;;;;;;0.10;0.10;;;;;;;16.57;69.60;102627.78;5027606;28;20045;-86
2021/10/07 05:02:34;;;;;;;0.10;0.10;;;;;;;16.48;69.96;102635.03;5033857;28;20172;-83
2021/10/07 05:05:01;;;;;;;0.10;0.10;;;;;;;16.47;69.78;102635.06;5034276;28;20047;-84
2021/10/07 05:07:27;;;;;;;0.10;0.10;;;;;;;16.48;70.08;102642.19;5028834;28;20125;-85
2021/10/07 05:09:53;;;;;;;0.10;0.10;;;;;;;16.47;69.97;102638.66;5030555;28;20042;-80
2021/10/07 05:12:19;;;;;;;0.10;0.10;;;;;;;16.50;69.43;102637.72;5035845;28;20025;-86
2021/10/07 05:14:45;;;;;;;0.10;0.10;;;;;;;16.49;69.53;102644.84;5034054;28;20047;-85
2021/10/07 05:17:11;;;;;;;0.10;0.10;;;;;;;16.44;69.62;102646.72;5040679;28;20395;-85
2021/10/07 05:19:37;;;;;;;0.10;0.10;;;;;;;16.42;69.59;102648.50;5041476;28;20033;-83
2021/10/07 05:22:04;;;;;;;0.10;0.10;;;;;;;16.47;69.37;102644.00;5047219;28;20033;-86
2021/10/07 05:24:30;;;;;;;0.10;0.10;;;;;;;16.40;69.49;102645.00;5036090;28;20079;-85
2021/10/07 05:26:57;;;;;;;0.10;0.10;;;;;;;16.42;69.64;102645.84;5047477;28;20487;-86
2021/10/07 05:29:23;;;;;;;0.10;0.10;;;;;;;16.41;69.47;102656.56;5041348;28;20044;-86
2021/10/07 05:31:49;;;;;;;0.20;0.20;;;;;;;16.38;69.64;102652.16;5039831;28;20025;-86
2021/10/07 05:34:16;;;;;;;0.10;0.10;;;;;;;16.37;69.54;102650.38;5048667;28;20040;-86
2021/10/07 05:36:43;;;;;;;0.10;0.10;;;;;;;16.37;69.81;102661.09;5019594;28;20047;-85
2021/10/07 05:39:10;;;;;;;0.10;0.10;;;;;;;16.37;69.38;102666.44;5045087;28;20064;-86
2021/10/07 05:41:36;;;;;;;0.10;0.10;;;;;;;16.36;69.49;102663.78;5043074;28;20025;-86
2021/10/07 05:44:02;;;;;;;0.10;0.10;;;;;;;16.29;69.56;102663.88;5037923;28;20053;-86
2021/10/07 05:46:28;;;;;;;0.10;0.10;;;;;;;16.22;69.17;102664.00;5048924;28;20029;-86
2021/10/07 05:48:54;;;;;;;0.10;0.10;;;;;;;16.15;69.48;102674.78;5037848;28;20044;-86
2021/10/07 05:51:21;;;;;;;0.10;0.10;;;;;;;16.11;68.91;102673.06;5043892;28;20096;-87
2021/10/07 05:53:47;;;;;;;0.10;0.10;;;;;;;16.05;69.06;102675.84;5044862;28;20029;-87
2021/10/07 05:56:13;;;;;;;0.10;0.10;;;;;;;16.01;68.91;102668.72;5035968;28;20034;-86
2021/10/07 05:58:39;;;;;;;0.10;0.10;;;;;;;15.95;68.67;102676.84;5048566;28;20022;-86
2021/10/07 06:01:05;;;;;;;0.10;0.10;;;;;;;15.84;68.81;102680.53;5031990;28;20040;-86
2021/10/07 06:03:31;;;;;;;0.10;0.10;;;;;;;15.76;68.54;102682.38;5045355;28;20153;-86
2021/10/07 06:05:57;;;;;;;0.10;0.10;;;;;;;15.72;68.44;102680.66;5042185;28;20029;-85
2021/10/07 06:08:24;;;;;;;0.10;0.10;;;;;;;15.69;68.15;102686.06;5050871;28;20498;-85
2021/10/07 06:10:50;;;;;;;0.10;0.10;;;;;;;15.63;68.00;102695.00;5040446;28;20067;-86
2021/10/07 06:13:16;;;;;;;0.10;0.10;;;;;;;15.50;68.12;102686.25;5047755;28;20037;-86
2021/10/07 06:15:42;;;;;;;0.10;0.10;;;;;;;15.41;68.28;102693.50;5047620;28;20475;-86
2021/10/07 06:18:08;;;;;;;0.10;0.10;;;;;;;15.41;68.02;102694.38;5040583;28;20034;-86
2021/10/07 06:20:35;;;;;;;0.08;0.08;;;;;;;15.30;68.05;102697.16;5052436;28;20040;-86
2021/10/07 06:23:03;;;;;;;0.10;0.10;;;;;;;15.26;68.29;102700.75;5042217;28;20017;-87
2021/10/07 06:25:31;;;;;;;0.10;0.10;;;;;;;15.28;68.19;102703.44;5045955;28;20040;-88
2021/10/07 06:27:57;;;;;;;0.10;0.10;;;;;;;15.27;68.29;102704.31;5049974;28;20032;-87
2021/10/07 06:30:23;;;;;;;0.10;0.10;;;;;;;15.25;68.55;102704.31;5039058;28;20043;-87
2021/10/07 06:32:50;;;;;;;0.10;0.10;;;;;;;15.25;68.38;102704.31;5051667;28;20101;-87
2021/10/07 06:35:17;;;;;;;0.10;0.10;;;;;;;15.26;68.43;102706.09;5043447;28;20384;-87
2021/10/07 06:37:44;;;;;;;0.10;0.10;;;;;;;15.19;68.51;102705.28;5043406;28;20025;-87
2021/10/07 06:40:10;;;;;;;0.10;0.10;;;;;;;15.22;68.66;102717.72;5051053;28;20037;-87
2021/10/07 06:42:37;;;;;;;0.10;0.10;;;;;;;15.25;68.99;102717.66;5038905;28;20029;-87
2021/10/07 06:45:05;;;;;;;0.10;0.10;;;;;;;15.35;69.03;102721.13;5048819;28;20026;-87
2021/10/07 06:47:32;;;;;;;0.10;0.10;;;;;;;15.42;69.10;102720.19;5045738;28;20029;-85
2021/10/07 06:49:59;;;;;;;0.10;0.10;;;;;;;15.52;69.26;102721.84;5041672;28;20041;-87
2021/10/07 06:52:25;;;;;;;0.10;0.10;;;;;;;15.54;69.55;102727.19;5051890;28;20025;-80
2021/10/07 06:54:52;;;;;;;0.00;0.00;;;;;;;15.61;69.64;102733.34;5040291;28;20029;-87
2021/10/07 06:57:18;;;;;;;0.00;0.00;;;;;;;15.71;69.57;102735.00;5046490;28;20044;-84
2021/10/07 06:59:44;;;;;;;0.10;0.10;;;;;;;15.75;69.86;102731.41;5047403;28;20091;-89
2021/10/07 07:02:10;;;;;;;0.10;0.10;;;;;;;15.82;69.96;102737.59;5039101;28;20088;-87
2021/10/07 07:04:36;;;;;;;0.10;0.10;;;;;;;15.83;69.93;102734.91;5051704;28;20523;-87
2021/10/07 07:07:02;;;;;;;0.10;0.10;;;;;;;15.85;69.79;102742.94;5035389;28;20505;-86
2021/10/07 07:09:28;;;;;;;0.20;0.20;;;;;;;15.91;70.11;102741.94;5035752;28;20026;-86
2021/10/07 07:11:55;;;;;;;0.20;0.20;;;;;;;15.99;70.04;102748.09;5035469;28;20026;-86
2021/10/07 07:14:21;;;;;;;0.10;0.10;;;;;;;16.00;70.01;102747.19;5035988;28;20060;-85
2021/10/07 07:16:47;;;;;;;0.65;0.65;;;;;;;16.01;70.29;102743.59;5035357;28;20614;-84
2021/10/07 07:19:13;;;;;;;0.10;0.10;;;;;;;16.09;70.20;102755.09;5035218;28;20075;-82
2021/10/07 07:21:39;;;;;;;0.10;0.10;;;;;;;16.09;70.14;102752.41;5033071;28;20500;-86
2021/10/07 07:24:05;;;;;;;0.25;0.25;;;;;;;16.17;70.05;102755.88;5033995;28;20030;-87
2021/10/07 07:26:33;;;;;;;0.10;0.10;;;;;;;16.22;69.95;102757.63;5031262;28;20057;-86
2021/10/07 07:29:00;;;;;;;0.10;0.10;;;;;;;16.27;70.01;102759.31;5030009;28;20651;-87
2021/10/07 07:31:27;;;;;;;0.20;0.20;;;;;;;16.36;70.38;102762.78;5030514;28;20084;-87
2021/10/07 07:33:53;;;;;;;0.10;0.10;;;;;;;16.44;70.11;102760.88;5039682;28;20033;-87
2021/10/07 07:36:22;;;;;;;0.10;0.10;;;;;;;16.43;70.31;102768.00;5049837;28;20058;-86
2021/10/07 07:38:49;;;;;;;0.15;0.15;;;;;;;16.50;69.85;102774.19;5037937;28;20027;-85
2021/10/07 07:41:16;;;;;;;0.10;0.10;;;;;;;16.48;70.17;102778.66;5025325;28;20464;-86
2021/10/07 07:43:43;;;;;;;0.10;0.10;;;;;;;16.57;70.08;102778.50;5031962;28;20037;-87
2021/10/07 07:46:09;;;;;;;0.10;0.10;;;;;;;16.59;69.99;102784.72;5033203;28;20040;-86
2021/10/07 07:48:35;;;;;;;0.32;0.32;;;;;;;16.60;70.11;102786.50;5035733;28;20384;-86
2021/10/07 07:51:02;;;;;;;0.35;0.35;;;;;;;16.74;70.06;102791.66;5046859;28;20033;-86
2021/10/07 07:53:29;;;;;;;0.10;0.10;;;;;;;16.82;70.04;102797.78;5042987;28;20036;-87
2021/10/07 07:55:55;;;;;;;0.00;0.00;;;;;;;16.85;70.00;102791.50;5039116;28;20512;-86
2021/10/07 07:58:22;;;;;;;0.10;0.10;;;;;;;16.94;70.02;102801.22;5025942;28;20034;-87
2021/10/07 08:00:48;;;;;;;0.10;0.10;;;;;;;17.08;69.76;102803.69;5037531;28;20430;-86
2021/10/07 08:03:15;;;;;;;0.10;0.10;;;;;;;17.17;70.08;102805.31;5045295;28;20029;-86
2021/10/07 08:05:42;;;;;;;0.10;0.10;;;;;;;17.25;69.97;102801.59;5039563;28;20029;-86
2021/10/07 08:08:08;;;;;;;0.00;0.00;;;;;;;17.34;69.79;102797.88;5045429;28;20033;-86
2021/10/07 08:10:35;;;;;;;0.10;0.10;;;;;;;17.39;70.11;102809.41;5049430;28;20033;-86
2021/10/07 08:13:02;;;;;;;0.10;0.10;;;;;;;17.44;69.90;102807.53;5046437;28;20039;-86
2021/10/07 08:15:28;;;;;;;0.10;0.10;;;;;;;17.54;69.97;102813.59;5036866;28;20075;-87
2021/10/07 08:17:55;;;;;;;0.10;0.10;;;;;;;17.62;69.87;102806.31;5031690;28;20040;-87
2021/10/07 08:20:22;;;;;;;0.10;0.10;;;;;;;17.72;69.70;102807.03;5032218;28;20037;-86
2021/10/07 08:22:49;;;;;;;0.10;0.10;;;;;;;17.78;69.72;102809.59;5032320;28;20025;-86
2021/10/07 08:25:17;;;;;;;0.10;0.10;;;;;;;17.88;69.70;102812.09;5031743;28;20646;-87
2021/10/07 08:27:44;;;;;;;0.10;0.10;;;;;;;17.93;69.37;102807.53;5037679;28;20072;-87
2021/10/07 08:30:15;;;;;;;0.10;0.10;;;;;;;18.00;69.22;102811.88;5037589;28;20124;-87
2021/10/07 08:32:41;;;;;;;0.10;0.10;;;;;;;17.95;69.27;102821.84;5031728;28;20036;-86
2021/10/07 08:35:09;;;;;;;0.15;0.15;;;;;;;17.99;69.04;102815.47;5032336;28;20026;-86
2021/10/07 08:37:35;;;;;;;0.10;0.10;;;;;;;17.97;68.97;102822.69;5032694;28;20174;-86
2021/10/07 08:40:06;;;;;;;0.10;0.10;;;;;;;17.90;68.61;102821.00;5032731;28;20108;-85
2021/10/07 08:42:32;;;;;;;0.10;0.10;;;;;;;17.86;68.81;102822.00;5031890;28;20026;-83
2021/10/07 08:45:00;;;;;;;0.10;0.10;;;;;;;17.87;68.88;102826.41;5031850;28;20026;-86
2021/10/07 08:47:28;;;;;;;0.10;0.10;;;;;;;17.92;69.03;102824.56;5031898;28;20064;-85
2021/10/07 08:49:54;;;;;;;0.10;0.10;;;;;;;18.00;68.98;102825.31;5031923;28;20060;-82
2021/10/07 08:52:20;;;;;;;0.10;0.10;;;;;;;18.08;69.18;102828.72;5031569;28;20033;-86
2021/10/07 08:54:47;;;;;;;0.10;0.10;;;;;;;18.14;68.88;102834.88;5031607;28;20567;-86
2021/10/07 08:57:14;;;;;;;0.10;0.10;;;;;;;18.11;68.51;102831.34;5031792;28;20068;-83
2021/10/07 08:59:40;;;;;;;0.05;0.05;;;;;;;18.14;68.34;102830.38;5032496;28;20029;-85
2021/10/07 09:02:29;;;;;;;0.10;0.10;;;;;;;18.17;67.87;102834.81;5031281;28;20029;-87
2021/10/07 09:08:14;;;;;;;0.10;0.10;;;;;;;18.08;67.89;102842.16;4838737;26;20046;-95
2021/10/07 09:10:56;;;;;;;0.10;0.10;;;;;;;18.06;68.08;102843.09;4982871;28;20077;-89
2021/10/07 09:13:26;;;;;;;0.10;0.10;;;;;;;18.05;68.25;102842.19;4990094;28;20505;-87
2021/10/07 09:15:56;;;;;;;0.15;0.15;;;;;;;18.08;68.34;102842.16;4991053;28;20568;-86
2021/10/07 09:18:50;;;;;;;;;;;;;;;;;;;;;
2021/10/07 09:22:09;;;;;;;0.05;0.05;;;;;;;18.22;68.71;102838.31;4991201;28;20026;-91
2021/10/07 09:24:39;;;;;;;0.10;0.10;;;;;;;18.38;68.77;102845.13;4991185;28;20425;-89
2021/10/07 09:27:10;;;;;;;0.17;0.17;;;;;;;18.53;69.11;102835.84;4992264;28;20034;-90
2021/10/07 09:29:41;;;;;;;0.20;0.20;;;;;;;18.70;68.18;102839.97;4992162;28;20035;-90
2021/10/07 09:32:10;;;;;;;0.10;0.10;;;;;;;18.85;68.33;102838.72;4992204;28;20110;-90
2021/10/07 09:34:46;;;;;;;2.30;1.60;;;;;;;18.90;67.94;102832.38;4991974;28;20038;-91
2021/10/07 09:37:31;;;;;;;0.10;0.10;;;;;;;19.01;67.64;102834.78;4992452;28;20031;-90
2021/10/07 09:40:01;;;;;;;0.10;0.10;;;;;;;18.96;67.37;102831.34;4996447;28;20469;-90
2021/10/07 09:42:32;;;;;;;0.10;0.10;;;;;;;19.03;67.96;102835.66;4996120;28;20077;-90
2021/10/07 09:45:20;;;;;;;0.28;0.28;;;;;;;19.33;67.96;102830.44;4996232;28;20054;-92
2021/10/07 09:50:35;;;;;;;0.30;0.30;;;;;;;19.40;66.96;102831.16;5089240;28;20953;-89
2021/10/07 09:55:52;;;;;;;0.10;0.10;;;;;;;19.51;66.63;102830.88;5101797;27;20413;-89
2021/10/07 09:58:21;;;;;;;0.10;0.10;;;;;;;19.52;66.67;102830.84;5089267;28;20395;-89
2021/10/07 10:00:55;;;;;;;0.10;0.10;;;;;;;19.52;66.00;102835.34;5088975;28;20052;-89
2021/10/07 10:03:30;;;;;;;1.25;1.05;;;;;;;19.55;66.18;102840.63;5088985;28;20494;-90
2021/10/07 10:05:57;;;;;;;0.10;0.10;;;;;;;19.53;64.38;102837.13;5089066;28;20023;-88
2021/10/07 10:08:23;;;;;;;0.10;0.10;;;;;;;19.57;65.35;102833.41;5089038;28;20020;-89
2021/10/07 10:10:53;;;;;;;0.10;0.10;;;;;;;19.62;65.17;102841.38;5088736;28;20026;-89
2021/10/07 10:13:19;;;;;;;0.15;0.15;;;;;;;19.64;63.83;102832.34;5089203;28;20495;-90
2021/10/07 10:15:51;;;;;;;0.20;0.20;;;;;;;19.71;64.54;102843.78;5088549;28;20046;-89
2021/10/07 10:18:17;;;;;;;;;;;;;;;19.93;64.63;102829.81;5089392;28;20052;-89
2021/10/07 10:20:55;;;;;;;0.10;0.10;;;;;;;19.87;65.63;102841.63;5088889;28;19920;-90
2021/10/07 10:23:25;;;;;;;0.10;0.10;;;;;;;19.91;64.48;102837.91;5088764;28;20119;-89
2021/10/07 10:34:16;;;;;;;0.10;0.10;;;;;;;20.20;64.45;102839.78;5068854;28;20387;-90
2021/10/07 10:39:45;;;;;;;0.10;0.10;;;;;;;20.26;62.24;102846.81;5089423;27;20412;-84
2021/10/07 10:45:03;;;;;;;0.43;0.40;;;;;;;20.19;62.84;102845.22;5089743;27;20418;-85
2021/10/07 10:47:31;;;;;;;0.38;0.35;;;;;;;20.19;63.94;102855.97;5049273;28;20033;-83
2021/10/07 10:50:00;;;;;;;0.10;0.10;;;;;;;20.08;63.00;102853.59;5049897;28;20030;-81
2021/10/07 10:57:52;;;;;;;0.80;0.80;;;;;;;19.96;63.91;102857.53;5089592;27;20412;-82
2021/10/07 11:00:36;;;;;;;0.30;0.30;;;;;;;20.04;63.66;102855.47;5069537;28;20431;-83
2021/10/07 11:06:01;;;;;;;1.08;0.52;;;;;;;19.89;62.92;102866.69;5083454;27;21483;-84
2021/10/07 11:08:28;;;;;;;0.32;0.32;;;;;;;19.89;63.05;102866.69;5069247;28;20037;-88
2021/10/07 11:10:56;;;;;;;0.20;0.20;;;;;;;19.86;62.69;102873.03;5069352;28;20056;-84
2021/10/07 11:13:24;;;;;;;0.10;0.10;;;;;;;19.88;63.51;102863.09;5069373;28;20064;-84
2021/10/07 11:15:56;;;;;;;0.10;0.10;;;;;;;19.82;63.71;102873.97;5069249;28;20116;-84
2021/10/07 11:18:24;;;;;;;0.10;0.10;;;;;;;19.82;63.04;102870.41;5069495;28;20039;-85
2021/10/07 11:21:12;;;;;;;0.10;0.10;;;;;;;19.76;61.75;102871.44;5069253;28;20468;-84
2021/10/07 11:23:38;;;;;;;0.20;0.20;;;;;;;19.76;63.70;102881.34;5069342;28;20036;-84
2021/10/07 11:26:05;;;;;;;0.32;0.32;;;;;;;19.76;63.59;102875.97;5069035;28;20503;-84
2021/10/07 11:28:35;;;;;;;0.10;0.10;;;;;;;19.72;63.73;102876.03;5068571;28;20071;-84
2021/10/07 11:31:07;;;;;;;0.17;0.17;;;;;;;19.71;63.12;102874.28;5069096;28;20509;-84
2021/10/07 11:33:34;;;;;;;0.10;0.10;;;;;;;19.71;64.40;102876.97;5068790;28;20025;-84
2021/10/07 11:36:04;;;;;;;0.10;0.10;;;;;;;19.76;64.55;102882.22;5068811;28;20025;-84
2021/10/07 11:38:31;;;;;;;0.65;0.65;;;;;;;19.71;62.95;102874.28;5068567;28;20029;-84
2021/10/07 11:40:57;;;;;;;0.10;0.10;;;;;;;19.75;63.07;102885.84;5068561;28;20032;-87
2021/10/07 11:43:27;;;;;;;0.25;0.25;;;;;;;19.89;64.13;102882.81;5067148;28;20123;-85
2021/10/07 11:45:59;;;;;;;0.10;0.10;;;;;;;19.93;61.77;102886.31;5066969;28;20075;-87
2021/10/07 11:48:26;;;;;;;0.95;0.95;;;;;;;20.00;62.70;102880.72;5068696;28;20048;-86
2021/10/07 11:50:59;;;;;;;0.30;0.30;;;;;;;20.10;62.21;102872.38;5068619;28;20059;-84
2021/10/07 11:56:13;;;;;;;0.10;0.10;;;;;;;20.55;60.94;102866.59;5060110;28;20463;-82
2021/10/07 11:58:40;;;;;;;9.85;1.35;;;;;;;20.80;61.30;102866.75;5049506;28;20029;-83
2021/10/07 12:01:08;;;;;;;0.17;0.17;;;;;;;20.95;62.04;102860.00;5049584;28;20025;-84
2021/10/07 12:03:37;;;;;;;0.10;0.10;;;;;;;21.09;61.65;102866.78;5049350;28;20029;-84
2021/10/07 12:06:09;;;;;;;0.20;0.20;;;;;;;21.23;59.81;102864.50;5044570;28;20046;-83
2021/10/07 12:08:38;;;;;;;0.43;0.43;;;;;;;21.25;58.63;102861.78;5048075;28;20033;-85
2021/10/07 12:13:47;;;;;;;0.22;0.22;;;;;;;21.40;56.52;102850.47;5069639;27;21007;-82
2021/10/07 12:16:17;;;;;;;0.10;0.10;;;;;;;21.56;57.87;102845.47;5038734;28;20052;-82